sensor_id;sensor_type;location;lat;lon;timestamp;temperature;humidity
75380;HTU21D;65641;44.714;37.756;2023-08-17T00:00:15;28.29;40.97
75380;HTU21D;65641;44.714;37.756;2023-08-17T00:01:20;28.29;41.04
75380;HTU21D;65641;44.714;37.756;2023-08-17T00:02:23;28.29;41.05
75380;HTU21D;65641;44.714;37.756;2023-08-17T00:03:26;28.28;40.97
75380;HTU21D;65641;44.714;37.756;2023-08-17T00:04:30;28.28;41.04
75380;HTU21D;65641;44.714;37.756;2023-08-17T00:05:33;28.25;41.13
75380;HTU21D;65641;44.714;37.756;2023-08-17T00:06:36;28.25;41.18
75380;HTU21D;65641;44.714;37.756;2023-08-17T00:07:40;28.24;41.10
75380;HTU21D;65641;44.714;37.756;2023-08-17T00:08:43;28.24;41.11
75380;HTU21D;65641;44.714;37.756;2023-08-17T00:09:46;28.23;41.13
75380;HTU21D;65641;44.714;37.756;2023-08-17T00:10:50;28.23;41.16
75380;HTU21D;65641;44.714;37.756;2023-08-17T00:11:53;28.20;41.18
75380;HTU21D;65641;44.714;37.756;2023-08-17T00:12:56;28.20;41.25
75380;HTU21D;65641;44.714;37.756;2023-08-17T00:13:59;28.18;41.28
75380;HTU21D;65641;44.714;37.756;2023-08-17T00:15:02;28.17;41.27
75380;HTU21D;65641;44.714;37.756;2023-08-17T00:16:05;28.16;41.24
75380;HTU21D;65641;44.714;37.756;2023-08-17T00:17:08;28.16;41.33
75380;HTU21D;65641;44.714;37.756;2023-08-17T00:18:11;28.15;41.32
75380;HTU21D;65641;44.714;37.756;2023-08-17T00:19:15;28.15;41.31
75380;HTU21D;65641;44.714;37.756;2023-08-17T00:20:18;28.15;41.31
75380;HTU21D;65641;44.714;37.756;2023-08-17T00:21:20;28.13;41.32
75380;HTU21D;65641;44.714;37.756;2023-08-17T00:22:23;28.13;41.33
75380;HTU21D;65641;44.714;37.756;2023-08-17T00:23:26;28.13;41.36
75380;HTU21D;65641;44.714;37.756;2023-08-17T00:24:30;28.13;41.33
75380;HTU21D;65641;44.714;37.756;2023-08-17T00:25:33;28.12;41.37
75380;HTU21D;65641;44.714;37.756;2023-08-17T00:26:36;28.11;41.39
75380;HTU21D;65641;44.714;37.756;2023-08-17T00:27:39;28.11;41.44
75380;HTU21D;65641;44.714;37.756;2023-08-17T00:28:42;28.10;41.36
75380;HTU21D;65641;44.714;37.756;2023-08-17T00:29:45;28.10;41.41
75380;HTU21D;65641;44.714;37.756;2023-08-17T00:30:48;28.10;41.52
75380;HTU21D;65641;44.714;37.756;2023-08-17T00:31:51;28.10;41.37
75380;HTU21D;65641;44.714;37.756;2023-08-17T00:32:55;28.10;41.37
75380;HTU21D;65641;44.714;37.756;2023-08-17T00:33:58;28.09;41.44
75380;HTU21D;65641;44.714;37.756;2023-08-17T00:35:01;28.09;41.43
75380;HTU21D;65641;44.714;37.756;2023-08-17T00:36:05;28.08;41.46
75380;HTU21D;65641;44.714;37.756;2023-08-17T00:37:08;28.09;41.38
75380;HTU21D;65641;44.714;37.756;2023-08-17T00:38:12;28.06;41.46
75380;HTU21D;65641;44.714;37.756;2023-08-17T00:39:15;28.06;41.43
75380;HTU21D;65641;44.714;37.756;2023-08-17T00:40:18;28.05;41.48
75380;HTU21D;65641;44.714;37.756;2023-08-17T00:41:21;28.04;41.53
75380;HTU21D;65641;44.714;37.756;2023-08-17T00:42:24;28.03;41.58
75380;HTU21D;65641;44.714;37.756;2023-08-17T00:43:27;28.03;41.55
75380;HTU21D;65641;44.714;37.756;2023-08-17T00:44:30;28.02;41.52
75380;HTU21D;65641;44.714;37.756;2023-08-17T00:45:33;28.02;41.55
75380;HTU21D;65641;44.714;37.756;2023-08-17T00:46:38;27.99;41.58
75380;HTU21D;65641;44.714;37.756;2023-08-17T00:47:42;28.00;41.62
75380;HTU21D;65641;44.714;37.756;2023-08-17T00:48:45;27.99;41.62
75380;HTU21D;65641;44.714;37.756;2023-08-17T00:49:49;27.98;41.62
75380;HTU21D;65641;44.714;37.756;2023-08-17T00:50:52;27.98;41.64
75380;HTU21D;65641;44.714;37.756;2023-08-17T00:51:56;27.99;41.65
75380;HTU21D;65641;44.714;37.756;2023-08-17T00:53:00;27.98;41.60
75380;HTU21D;65641;44.714;37.756;2023-08-17T00:54:03;27.98;41.70
75380;HTU21D;65641;44.714;37.756;2023-08-17T00:55:07;27.99;41.54
75380;HTU21D;65641;44.714;37.756;2023-08-17T00:56:11;27.99;41.70
75380;HTU21D;65641;44.714;37.756;2023-08-17T00:57:14;28.00;41.58
75380;HTU21D;65641;44.714;37.756;2023-08-17T00:58:16;27.99;41.58
75380;HTU21D;65641;44.714;37.756;2023-08-17T00:59:20;27.99;41.61
75380;HTU21D;65641;44.714;37.756;2023-08-17T01:00:24;28.00;41.55
75380;HTU21D;65641;44.714;37.756;2023-08-17T01:01:30;27.99;41.64
75380;HTU21D;65641;44.714;37.756;2023-08-17T01:02:34;28.00;41.64
75380;HTU21D;65641;44.714;37.756;2023-08-17T01:03:39;28.00;41.54
75380;HTU21D;65641;44.714;37.756;2023-08-17T01:04:43;27.99;41.50
75380;HTU21D;65641;44.714;37.756;2023-08-17T01:05:46;27.99;41.60
75380;HTU21D;65641;44.714;37.756;2023-08-17T01:06:49;27.98;41.54
75380;HTU21D;65641;44.714;37.756;2023-08-17T01:07:52;28.00;41.58
75380;HTU21D;65641;44.714;37.756;2023-08-17T01:08:55;27.99;41.52
75380;HTU21D;65641;44.714;37.756;2023-08-17T01:09:59;27.98;41.52
75380;HTU21D;65641;44.714;37.756;2023-08-17T01:11:20;27.99;41.64
75380;HTU21D;65641;44.714;37.756;2023-08-17T01:12:29;27.96;41.65
75380;HTU21D;65641;44.714;37.756;2023-08-17T01:14:07;27.95;41.67
75380;HTU21D;65641;44.714;37.756;2023-08-17T01:15:23;27.95;41.68
75380;HTU21D;65641;44.714;37.756;2023-08-17T01:16:31;27.94;41.65
75380;HTU21D;65641;44.714;37.756;2023-08-17T01:17:56;27.94;41.74
75380;HTU21D;65641;44.714;37.756;2023-08-17T01:19:00;27.93;41.70
75380;HTU21D;65641;44.714;37.756;2023-08-17T01:20:04;27.91;41.70
75380;HTU21D;65641;44.714;37.756;2023-08-17T01:21:10;27.90;41.71
75380;HTU21D;65641;44.714;37.756;2023-08-17T01:22:14;27.90;41.73
75380;HTU21D;65641;44.714;37.756;2023-08-17T01:23:20;27.90;41.78
75380;HTU21D;65641;44.714;37.756;2023-08-17T01:24:23;27.87;41.75
75380;HTU21D;65641;44.714;37.756;2023-08-17T01:25:27;27.87;41.79
75380;HTU21D;65641;44.714;37.756;2023-08-17T01:26:30;27.86;41.79
75380;HTU21D;65641;44.714;37.756;2023-08-17T01:27:39;27.86;41.81
75380;HTU21D;65641;44.714;37.756;2023-08-17T01:28:46;27.86;41.78
75380;HTU21D;65641;44.714;37.756;2023-08-17T01:29:53;27.87;41.74
75380;HTU21D;65641;44.714;37.756;2023-08-17T01:31:00;27.87;41.72
75380;HTU21D;65641;44.714;37.756;2023-08-17T01:32:13;27.86;41.82
75380;HTU21D;65641;44.714;37.756;2023-08-17T01:33:31;27.84;41.80
75380;HTU21D;65641;44.714;37.756;2023-08-17T01:34:40;27.85;41.81
75380;HTU21D;65641;44.714;37.756;2023-08-17T01:35:56;27.83;41.78
75380;HTU21D;65641;44.714;37.756;2023-08-17T01:37:01;27.82;41.80
75380;HTU21D;65641;44.714;37.756;2023-08-17T01:38:16;27.83;41.78
75380;HTU21D;65641;44.714;37.756;2023-08-17T01:39:26;27.82;41.79
75380;HTU21D;65641;44.714;37.756;2023-08-17T01:40:33;27.82;41.81
75380;HTU21D;65641;44.714;37.756;2023-08-17T01:41:37;27.82;41.74
75380;HTU21D;65641;44.714;37.756;2023-08-17T01:42:41;27.82;41.75
75380;HTU21D;65641;44.714;37.756;2023-08-17T01:43:45;27.83;41.78
75380;HTU21D;65641;44.714;37.756;2023-08-17T01:44:51;27.82;41.75
75380;HTU21D;65641;44.714;37.756;2023-08-17T01:45:54;27.82;41.78
75380;HTU21D;65641;44.714;37.756;2023-08-17T01:46:57;27.83;41.74
75380;HTU21D;65641;44.714;37.756;2023-08-17T01:48:00;27.84;41.77
75380;HTU21D;65641;44.714;37.756;2023-08-17T01:49:03;27.83;41.77
75380;HTU21D;65641;44.714;37.756;2023-08-17T01:50:10;27.84;41.80
75380;HTU21D;65641;44.714;37.756;2023-08-17T01:51:19;27.85;41.74
75380;HTU21D;65641;44.714;37.756;2023-08-17T01:52:27;27.84;41.81
75380;HTU21D;65641;44.714;37.756;2023-08-17T01:53:30;27.83;41.79
75380;HTU21D;65641;44.714;37.756;2023-08-17T01:54:33;27.83;41.87
75380;HTU21D;65641;44.714;37.756;2023-08-17T01:55:37;27.82;41.75
75380;HTU21D;65641;44.714;37.756;2023-08-17T01:56:41;27.83;41.81
75380;HTU21D;65641;44.714;37.756;2023-08-17T01:57:44;27.83;41.74
75380;HTU21D;65641;44.714;37.756;2023-08-17T01:58:47;27.83;41.74
75380;HTU21D;65641;44.714;37.756;2023-08-17T01:59:50;27.82;41.74
75380;HTU21D;65641;44.714;37.756;2023-08-17T02:00:53;27.82;41.73
75380;HTU21D;65641;44.714;37.756;2023-08-17T02:01:56;27.82;41.74
75380;HTU21D;65641;44.714;37.756;2023-08-17T02:03:00;27.83;41.75
75380;HTU21D;65641;44.714;37.756;2023-08-17T02:04:03;27.83;41.73
75380;HTU21D;65641;44.714;37.756;2023-08-17T02:05:06;27.81;41.68
75380;HTU21D;65641;44.714;37.756;2023-08-17T02:06:09;27.81;41.73
75380;HTU21D;65641;44.714;37.756;2023-08-17T02:07:12;27.79;41.77
75380;HTU21D;65641;44.714;37.756;2023-08-17T02:08:15;27.79;41.73
75380;HTU21D;65641;44.714;37.756;2023-08-17T02:09:18;27.78;41.77
75380;HTU21D;65641;44.714;37.756;2023-08-17T02:10:21;27.76;41.81
75380;HTU21D;65641;44.714;37.756;2023-08-17T02:11:24;27.75;41.87
75380;HTU21D;65641;44.714;37.756;2023-08-17T02:12:28;27.73;41.90
75380;HTU21D;65641;44.714;37.756;2023-08-17T02:13:30;27.74;41.92
75380;HTU21D;65641;44.714;37.756;2023-08-17T02:14:38;27.72;41.98
75380;HTU21D;65641;44.714;37.756;2023-08-17T02:15:42;27.71;42.03
75380;HTU21D;65641;44.714;37.756;2023-08-17T02:16:45;27.70;42.00
75380;HTU21D;65641;44.714;37.756;2023-08-17T02:17:48;27.71;42.09
75380;HTU21D;65641;44.714;37.756;2023-08-17T02:18:51;27.68;42.07
75380;HTU21D;65641;44.714;37.756;2023-08-17T02:19:54;27.68;42.10
75380;HTU21D;65641;44.714;37.756;2023-08-17T02:20:57;27.67;42.09
75380;HTU21D;65641;44.714;37.756;2023-08-17T02:22:01;27.67;42.07
75380;HTU21D;65641;44.714;37.756;2023-08-17T02:23:04;27.65;42.13
75380;HTU21D;65641;44.714;37.756;2023-08-17T02:24:07;27.63;42.15
75380;HTU21D;65641;44.714;37.756;2023-08-17T02:25:10;27.63;42.12
75380;HTU21D;65641;44.714;37.756;2023-08-17T02:26:13;27.63;42.19
75380;HTU21D;65641;44.714;37.756;2023-08-17T02:27:16;27.60;42.21
75380;HTU21D;65641;44.714;37.756;2023-08-17T02:28:19;27.60;42.19
75380;HTU21D;65641;44.714;37.756;2023-08-17T02:29:22;27.58;42.25
75380;HTU21D;65641;44.714;37.756;2023-08-17T02:30:25;27.57;42.26
75380;HTU21D;65641;44.714;37.756;2023-08-17T02:31:28;27.57;42.29
75380;HTU21D;65641;44.714;37.756;2023-08-17T02:32:32;27.55;42.29
75380;HTU21D;65641;44.714;37.756;2023-08-17T02:33:35;27.55;42.29
75380;HTU21D;65641;44.714;37.756;2023-08-17T02:34:40;27.54;42.29
75380;HTU21D;65641;44.714;37.756;2023-08-17T02:35:49;27.53;42.31
75380;HTU21D;65641;44.714;37.756;2023-08-17T02:36:52;27.53;42.32
75380;HTU21D;65641;44.714;37.756;2023-08-17T02:37:55;27.53;42.32
75380;HTU21D;65641;44.714;37.756;2023-08-17T02:38:57;27.51;42.28
75380;HTU21D;65641;44.714;37.756;2023-08-17T02:40:01;27.52;42.32
75380;HTU21D;65641;44.714;37.756;2023-08-17T02:41:04;27.51;42.34
75380;HTU21D;65641;44.714;37.756;2023-08-17T02:42:07;27.51;42.32
75380;HTU21D;65641;44.714;37.756;2023-08-17T02:43:09;27.50;42.26
75380;HTU21D;65641;44.714;37.756;2023-08-17T02:44:12;27.50;42.29
75380;HTU21D;65641;44.714;37.756;2023-08-17T02:45:16;27.50;42.28
75380;HTU21D;65641;44.714;37.756;2023-08-17T02:46:19;27.50;42.26
75380;HTU21D;65641;44.714;37.756;2023-08-17T02:47:22;27.47;42.26
75380;HTU21D;65641;44.714;37.756;2023-08-17T02:48:25;27.47;42.29
75380;HTU21D;65641;44.714;37.756;2023-08-17T02:49:28;27.47;42.28
75380;HTU21D;65641;44.714;37.756;2023-08-17T02:50:31;27.47;42.24
75380;HTU21D;65641;44.714;37.756;2023-08-17T02:51:34;27.50;42.23
75380;HTU21D;65641;44.714;37.756;2023-08-17T02:52:37;27.49;42.16
75380;HTU21D;65641;44.714;37.756;2023-08-17T02:53:41;27.51;42.19
75380;HTU21D;65641;44.714;37.756;2023-08-17T02:54:43;27.51;42.15
75380;HTU21D;65641;44.714;37.756;2023-08-17T02:55:46;27.50;42.09
75380;HTU21D;65641;44.714;37.756;2023-08-17T02:56:49;27.53;42.10
75380;HTU21D;65641;44.714;37.756;2023-08-17T02:57:53;27.53;42.10
75380;HTU21D;65641;44.714;37.756;2023-08-17T02:58:56;27.55;42.04
75380;HTU21D;65641;44.714;37.756;2023-08-17T02:59:58;27.54;42.06
75380;HTU21D;65641;44.714;37.756;2023-08-17T03:01:05;27.54;42.06
75380;HTU21D;65641;44.714;37.756;2023-08-17T03:02:08;27.53;42.03
75380;HTU21D;65641;44.714;37.756;2023-08-17T03:03:11;27.52;42.03
75380;HTU21D;65641;44.714;37.756;2023-08-17T03:04:14;27.54;42.00
75380;HTU21D;65641;44.714;37.756;2023-08-17T03:05:17;27.55;41.98
75380;HTU21D;65641;44.714;37.756;2023-08-17T03:06:19;27.57;41.97
75380;HTU21D;65641;44.714;37.756;2023-08-17T03:07:22;27.57;41.92
75380;HTU21D;65641;44.714;37.756;2023-08-17T03:08:28;27.59;41.91
75380;HTU21D;65641;44.714;37.756;2023-08-17T03:09:31;27.59;41.86
75380;HTU21D;65641;44.714;37.756;2023-08-17T03:10:37;27.60;41.83
75380;HTU21D;65641;44.714;37.756;2023-08-17T03:11:40;27.60;41.85
75380;HTU21D;65641;44.714;37.756;2023-08-17T03:12:43;27.60;41.82
75380;HTU21D;65641;44.714;37.756;2023-08-17T03:13:46;27.61;41.81
75380;HTU21D;65641;44.714;37.756;2023-08-17T03:14:50;27.61;41.81
75380;HTU21D;65641;44.714;37.756;2023-08-17T03:15:54;27.63;41.78
75380;HTU21D;65641;44.714;37.756;2023-08-17T03:16:57;27.66;41.78
75380;HTU21D;65641;44.714;37.756;2023-08-17T03:18:00;27.68;41.72
75380;HTU21D;65641;44.714;37.756;2023-08-17T03:19:03;27.69;41.70
75380;HTU21D;65641;44.714;37.756;2023-08-17T03:20:08;27.70;41.68
75380;HTU21D;65641;44.714;37.756;2023-08-17T03:21:10;27.72;41.65
75380;HTU21D;65641;44.714;37.756;2023-08-17T03:22:13;27.73;41.63
75380;HTU21D;65641;44.714;37.756;2023-08-17T03:23:17;27.73;41.60
75380;HTU21D;65641;44.714;37.756;2023-08-17T03:24:20;27.75;41.62
75380;HTU21D;65641;44.714;37.756;2023-08-17T03:25:22;27.75;41.62
75380;HTU21D;65641;44.714;37.756;2023-08-17T03:26:25;27.76;41.55
75380;HTU21D;65641;44.714;37.756;2023-08-17T03:27:28;27.78;41.59
75380;HTU21D;65641;44.714;37.756;2023-08-17T03:28:31;27.78;41.55
75380;HTU21D;65641;44.714;37.756;2023-08-17T03:29:34;27.79;41.53
75380;HTU21D;65641;44.714;37.756;2023-08-17T03:30:38;27.80;41.53
75380;HTU21D;65641;44.714;37.756;2023-08-17T03:31:40;27.80;41.52
75380;HTU21D;65641;44.714;37.756;2023-08-17T03:32:44;27.82;41.49
75380;HTU21D;65641;44.714;37.756;2023-08-17T03:33:48;27.83;41.47
75380;HTU21D;65641;44.714;37.756;2023-08-17T03:34:51;27.83;41.49
75380;HTU21D;65641;44.714;37.756;2023-08-17T03:35:54;27.83;41.49
75380;HTU21D;65641;44.714;37.756;2023-08-17T03:36:57;27.84;41.41
75380;HTU21D;65641;44.714;37.756;2023-08-17T03:38:00;27.85;41.42
75380;HTU21D;65641;44.714;37.756;2023-08-17T03:39:03;27.86;41.45
75380;HTU21D;65641;44.714;37.756;2023-08-17T03:40:07;27.86;41.39
75380;HTU21D;65641;44.714;37.756;2023-08-17T03:41:10;27.88;41.39
75380;HTU21D;65641;44.714;37.756;2023-08-17T03:42:13;27.89;41.36
75380;HTU21D;65641;44.714;37.756;2023-08-17T03:43:16;27.90;41.37
75380;HTU21D;65641;44.714;37.756;2023-08-17T03:44:19;27.90;41.29
75380;HTU21D;65641;44.714;37.756;2023-08-17T03:45:22;27.93;41.32
75380;HTU21D;65641;44.714;37.756;2023-08-17T03:46:26;27.91;41.28
75380;HTU21D;65641;44.714;37.756;2023-08-17T03:47:29;27.94;41.29
75380;HTU21D;65641;44.714;37.756;2023-08-17T03:48:32;27.96;41.29
75380;HTU21D;65641;44.714;37.756;2023-08-17T03:49:35;27.96;41.23
75380;HTU21D;65641;44.714;37.756;2023-08-17T03:50:38;27.97;41.25
75380;HTU21D;65641;44.714;37.756;2023-08-17T03:51:41;28.00;41.22
75380;HTU21D;65641;44.714;37.756;2023-08-17T03:52:45;28.00;41.16
75380;HTU21D;65641;44.714;37.756;2023-08-17T03:53:48;28.01;41.14
75380;HTU21D;65641;44.714;37.756;2023-08-17T03:54:52;28.02;41.10
75380;HTU21D;65641;44.714;37.756;2023-08-17T03:55:55;28.03;41.10
75380;HTU21D;65641;44.714;37.756;2023-08-17T03:57:00;28.04;41.07
75380;HTU21D;65641;44.714;37.756;2023-08-17T03:58:03;28.05;41.10
75380;HTU21D;65641;44.714;37.756;2023-08-17T03:59:05;28.05;41.04
75380;HTU21D;65641;44.714;37.756;2023-08-17T04:00:09;28.08;41.01
75380;HTU21D;65641;44.714;37.756;2023-08-17T04:01:15;28.09;41.00
75380;HTU21D;65641;44.714;37.756;2023-08-17T04:02:18;28.09;41.06
75380;HTU21D;65641;44.714;37.756;2023-08-17T04:03:21;28.11;40.98
75380;HTU21D;65641;44.714;37.756;2023-08-17T04:04:24;28.11;41.04
75380;HTU21D;65641;44.714;37.756;2023-08-17T04:05:27;28.13;40.97
75380;HTU21D;65641;44.714;37.756;2023-08-17T04:06:30;28.16;40.94
75380;HTU21D;65641;44.714;37.756;2023-08-17T04:07:33;28.16;40.91
75380;HTU21D;65641;44.714;37.756;2023-08-17T04:08:38;28.17;40.89
75380;HTU21D;65641;44.714;37.756;2023-08-17T04:09:43;28.17;40.83
75380;HTU21D;65641;44.714;37.756;2023-08-17T04:10:47;28.19;40.81
75380;HTU21D;65641;44.714;37.756;2023-08-17T04:11:50;28.21;40.82
75380;HTU21D;65641;44.714;37.756;2023-08-17T04:12:53;28.23;40.81
75380;HTU21D;65641;44.714;37.756;2023-08-17T04:13:56;28.24;40.78
75380;HTU21D;65641;44.714;37.756;2023-08-17T04:14:59;28.27;40.75
75380;HTU21D;65641;44.714;37.756;2023-08-17T04:16:02;28.29;40.71
75380;HTU21D;65641;44.714;37.756;2023-08-17T04:17:05;28.30;40.71
75380;HTU21D;65641;44.714;37.756;2023-08-17T04:18:08;28.33;40.68
75380;HTU21D;65641;44.714;37.756;2023-08-17T04:19:12;28.34;40.65
75380;HTU21D;65641;44.714;37.756;2023-08-17T04:20:15;28.37;40.65
75380;HTU21D;65641;44.714;37.756;2023-08-17T04:21:19;28.40;40.59
75380;HTU21D;65641;44.714;37.756;2023-08-17T04:22:22;28.42;40.55
75380;HTU21D;65641;44.714;37.756;2023-08-17T04:23:25;28.44;40.51
75380;HTU21D;65641;44.714;37.756;2023-08-17T04:24:28;28.48;40.52
75380;HTU21D;65641;44.714;37.756;2023-08-17T04:25:31;28.48;40.48
75380;HTU21D;65641;44.714;37.756;2023-08-17T04:26:34;28.50;40.42
75380;HTU21D;65641;44.714;37.756;2023-08-17T04:27:37;28.53;40.40
75380;HTU21D;65641;44.714;37.756;2023-08-17T04:28:40;28.54;40.38
75380;HTU21D;65641;44.714;37.756;2023-08-17T04:29:43;28.57;40.34
75380;HTU21D;65641;44.714;37.756;2023-08-17T04:30:47;28.58;40.33
75380;HTU21D;65641;44.714;37.756;2023-08-17T04:31:50;28.60;40.32
75380;HTU21D;65641;44.714;37.756;2023-08-17T04:32:53;28.62;40.31
75380;HTU21D;65641;44.714;37.756;2023-08-17T04:33:56;28.64;40.28
75380;HTU21D;65641;44.714;37.756;2023-08-17T04:34:59;28.64;40.24
75380;HTU21D;65641;44.714;37.756;2023-08-17T04:36:01;28.67;40.23
75380;HTU21D;65641;44.714;37.756;2023-08-17T04:37:04;28.70;40.17
75380;HTU21D;65641;44.714;37.756;2023-08-17T04:38:07;28.71;40.10
75380;HTU21D;65641;44.714;37.756;2023-08-17T04:39:11;28.73;40.07
75380;HTU21D;65641;44.714;37.756;2023-08-17T04:40:15;28.75;40.10
75380;HTU21D;65641;44.714;37.756;2023-08-17T04:41:18;28.78;40.01
75380;HTU21D;65641;44.714;37.756;2023-08-17T04:42:22;28.79;39.99
75380;HTU21D;65641;44.714;37.756;2023-08-17T04:43:27;28.82;39.99
75380;HTU21D;65641;44.714;37.756;2023-08-17T04:44:31;28.85;39.94
75380;HTU21D;65641;44.714;37.756;2023-08-17T04:45:34;28.87;39.87
75380;HTU21D;65641;44.714;37.756;2023-08-17T04:46:38;28.89;39.81
75380;HTU21D;65641;44.714;37.756;2023-08-17T04:47:41;28.91;39.76
75380;HTU21D;65641;44.714;37.756;2023-08-17T04:48:44;28.94;39.80
75380;HTU21D;65641;44.714;37.756;2023-08-17T04:49:48;28.95;39.72
75380;HTU21D;65641;44.714;37.756;2023-08-17T04:50:51;28.99;39.68
75380;HTU21D;65641;44.714;37.756;2023-08-17T04:51:54;29.01;39.63
75380;HTU21D;65641;44.714;37.756;2023-08-17T04:52:57;29.02;39.62
75380;HTU21D;65641;44.714;37.756;2023-08-17T04:54:00;29.04;39.58
75380;HTU21D;65641;44.714;37.756;2023-08-17T04:55:04;29.07;39.53
75380;HTU21D;65641;44.714;37.756;2023-08-17T04:56:07;29.08;39.47
75380;HTU21D;65641;44.714;37.756;2023-08-17T04:57:10;29.13;39.46
75380;HTU21D;65641;44.714;37.756;2023-08-17T04:58:13;29.14;39.44
75380;HTU21D;65641;44.714;37.756;2023-08-17T04:59:16;29.17;39.39
75380;HTU21D;65641;44.714;37.756;2023-08-17T05:00:19;29.18;39.36
75380;HTU21D;65641;44.714;37.756;2023-08-17T05:01:28;29.21;39.30
75380;HTU21D;65641;44.714;37.756;2023-08-17T05:02:31;29.23;39.31
75380;HTU21D;65641;44.714;37.756;2023-08-17T05:03:35;29.26;39.25
75380;HTU21D;65641;44.714;37.756;2023-08-17T05:04:39;29.27;39.20
75380;HTU21D;65641;44.714;37.756;2023-08-17T05:05:43;29.29;39.20
75380;HTU21D;65641;44.714;37.756;2023-08-17T05:06:46;29.31;39.13
75380;HTU21D;65641;44.714;37.756;2023-08-17T05:07:50;29.33;39.10
75380;HTU21D;65641;44.714;37.756;2023-08-17T05:08:53;29.33;39.07
75380;HTU21D;65641;44.714;37.756;2023-08-17T05:09:56;29.37;39.07
75380;HTU21D;65641;44.714;37.756;2023-08-17T05:10:59;29.38;39.02
75380;HTU21D;65641;44.714;37.756;2023-08-17T05:12:02;29.42;38.98
75380;HTU21D;65641;44.714;37.756;2023-08-17T05:13:05;29.44;38.95
75380;HTU21D;65641;44.714;37.756;2023-08-17T05:14:09;29.46;38.92
75380;HTU21D;65641;44.714;37.756;2023-08-17T05:15:12;29.47;38.91
75380;HTU21D;65641;44.714;37.756;2023-08-17T05:16:15;29.48;38.86
75380;HTU21D;65641;44.714;37.756;2023-08-17T05:17:19;29.49;38.89
75380;HTU21D;65641;44.714;37.756;2023-08-17T05:18:22;29.52;38.85
75380;HTU21D;65641;44.714;37.756;2023-08-17T05:19:25;29.53;38.82
75380;HTU21D;65641;44.714;37.756;2023-08-17T05:20:29;29.56;38.78
75380;HTU21D;65641;44.714;37.756;2023-08-17T05:21:34;29.58;38.73
75380;HTU21D;65641;44.714;37.756;2023-08-17T05:22:38;29.60;38.72
75380;HTU21D;65641;44.714;37.756;2023-08-17T05:23:41;29.62;38.66
75380;HTU21D;65641;44.714;37.756;2023-08-17T05:24:44;29.62;38.66
75380;HTU21D;65641;44.714;37.756;2023-08-17T05:25:47;29.63;38.66
75380;HTU21D;65641;44.714;37.756;2023-08-17T05:26:50;29.65;38.62
75380;HTU21D;65641;44.714;37.756;2023-08-17T05:27:54;29.66;38.58
75380;HTU21D;65641;44.714;37.756;2023-08-17T05:28:57;29.68;38.59
75380;HTU21D;65641;44.714;37.756;2023-08-17T05:30:00;29.71;38.54
75380;HTU21D;65641;44.714;37.756;2023-08-17T05:31:06;29.72;38.50
75380;HTU21D;65641;44.714;37.756;2023-08-17T05:32:13;29.75;38.47
75380;HTU21D;65641;44.714;37.756;2023-08-17T05:33:17;29.76;38.46
75380;HTU21D;65641;44.714;37.756;2023-08-17T05:34:20;29.77;38.44
75380;HTU21D;65641;44.714;37.756;2023-08-17T05:35:23;29.80;38.40
75380;HTU21D;65641;44.714;37.756;2023-08-17T05:36:26;29.82;38.36
75380;HTU21D;65641;44.714;37.756;2023-08-17T05:37:29;29.83;38.33
75380;HTU21D;65641;44.714;37.756;2023-08-17T05:38:32;29.88;38.29
75380;HTU21D;65641;44.714;37.756;2023-08-17T05:39:36;29.89;38.27
75380;HTU21D;65641;44.714;37.756;2023-08-17T05:40:39;29.90;38.24
75380;HTU21D;65641;44.714;37.756;2023-08-17T05:41:42;29.91;38.22
75380;HTU21D;65641;44.714;37.756;2023-08-17T05:42:45;29.94;38.17
75380;HTU21D;65641;44.714;37.756;2023-08-17T05:43:48;29.97;38.14
75380;HTU21D;65641;44.714;37.756;2023-08-17T05:44:51;29.97;38.14
75380;HTU21D;65641;44.714;37.756;2023-08-17T05:45:57;30.01;38.10
75380;HTU21D;65641;44.714;37.756;2023-08-17T05:47:00;30.03;38.02
75380;HTU21D;65641;44.714;37.756;2023-08-17T05:48:04;30.06;38.02
75380;HTU21D;65641;44.714;37.756;2023-08-17T05:49:07;30.05;38.01
75380;HTU21D;65641;44.714;37.756;2023-08-17T05:50:10;30.09;37.95
75380;HTU21D;65641;44.714;37.756;2023-08-17T05:51:13;30.11;37.94
75380;HTU21D;65641;44.714;37.756;2023-08-17T05:52:15;30.13;37.88
75380;HTU21D;65641;44.714;37.756;2023-08-17T05:53:18;30.16;37.86
75380;HTU21D;65641;44.714;37.756;2023-08-17T05:54:21;30.17;37.85
75380;HTU21D;65641;44.714;37.756;2023-08-17T05:55:24;30.19;37.81
75380;HTU21D;65641;44.714;37.756;2023-08-17T05:56:27;30.22;37.78
75380;HTU21D;65641;44.714;37.756;2023-08-17T05:57:30;30.26;37.75
75380;HTU21D;65641;44.714;37.756;2023-08-17T05:58:34;30.27;37.71
75380;HTU21D;65641;44.714;37.756;2023-08-17T05:59:36;30.30;37.69
75380;HTU21D;65641;44.714;37.756;2023-08-17T06:00:39;30.31;37.66
75380;HTU21D;65641;44.714;37.756;2023-08-17T06:01:42;30.35;37.63
75380;HTU21D;65641;44.714;37.756;2023-08-17T06:02:45;30.35;37.62
75380;HTU21D;65641;44.714;37.756;2023-08-17T06:03:52;30.38;37.60
75380;HTU21D;65641;44.714;37.756;2023-08-17T06:04:55;30.41;37.53
75380;HTU21D;65641;44.714;37.756;2023-08-17T06:05:58;30.44;37.48
75380;HTU21D;65641;44.714;37.756;2023-08-17T06:07:01;30.47;37.45
75380;HTU21D;65641;44.714;37.756;2023-08-17T06:08:04;30.50;37.40
75380;HTU21D;65641;44.714;37.756;2023-08-17T06:09:07;30.52;37.40
75380;HTU21D;65641;44.714;37.756;2023-08-17T06:10:11;30.54;37.35
75380;HTU21D;65641;44.714;37.756;2023-08-17T06:11:14;30.55;37.29
75380;HTU21D;65641;44.714;37.756;2023-08-17T06:12:17;30.56;37.29
75380;HTU21D;65641;44.714;37.756;2023-08-17T06:13:21;30.60;37.33
75380;HTU21D;65641;44.714;37.756;2023-08-17T06:14:24;30.62;37.27
75380;HTU21D;65641;44.714;37.756;2023-08-17T06:15:27;30.64;37.25
75380;HTU21D;65641;44.714;37.756;2023-08-17T06:16:30;30.64;37.25
75380;HTU21D;65641;44.714;37.756;2023-08-17T06:17:33;30.66;37.28
75380;HTU21D;65641;44.714;37.756;2023-08-17T06:18:36;30.66;37.22
75380;HTU21D;65641;44.714;37.756;2023-08-17T06:19:39;30.67;37.30
75380;HTU21D;65641;44.714;37.756;2023-08-17T06:20:42;30.67;37.30
75380;HTU21D;65641;44.714;37.756;2023-08-17T06:21:45;30.70;37.25
75380;HTU21D;65641;44.714;37.756;2023-08-17T06:22:48;30.69;37.33
75380;HTU21D;65641;44.714;37.756;2023-08-17T06:23:52;30.71;37.28
75380;HTU21D;65641;44.714;37.756;2023-08-17T06:24:55;30.75;37.24
75380;HTU21D;65641;44.714;37.756;2023-08-17T06:25:58;30.75;37.30
75380;HTU21D;65641;44.714;37.756;2023-08-17T06:27:01;30.78;37.27
75380;HTU21D;65641;44.714;37.756;2023-08-17T06:28:06;30.80;37.27
75380;HTU21D;65641;44.714;37.756;2023-08-17T06:29:09;30.81;37.27
75380;HTU21D;65641;44.714;37.756;2023-08-17T06:30:12;30.83;37.30
75380;HTU21D;65641;44.714;37.756;2023-08-17T06:31:15;30.84;37.25